Nearby METAR Reports

 

KCXY - Harrisburg, Pennsylvania, USA
Distance from station: E 9mi, 14km
Updated: Fri, 22-Mar-2019 11:56pm EDT
Mostly cloudy
Mostly cloudy
 Wind from NW
Wind: NW 20 mph , 31 km/h, Gust: 32 mph , 52 km/h
Temperature: 37°F , 3°C
Wind Chill: 27°F , -3°C
Dew Point: 19°F , -7°C
Humidity: 48%
Barometer: 29.79 inHg , 1008.8 hPa
Clouds: Mostly cloudy
Visibility: 10 miles , 16 km
Cloud details: Mostly cloudy 4400 ft
2019/03/23 03:56 KCXY 230356Z AUTO 31017G28KT 10SM BKN044 03/M07 A2979 RMK AO2 PK WND 27030/0332 SLP090 T00281072
KMDT - Middletown, Pennsylvania, USA
Distance from station: E 13mi, 21km
Updated: Fri, 22-Mar-2019 11:56pm EDT
Partly cloudy
Partly cloudy
 Wind from NW
Wind: NW 28 mph , 44 km/h, Gust: 36 mph , 57 km/h
Temperature: 36°F , 2°C
Wind Chill: 23°F , -5°C
Dew Point: 21°F , -6°C
Humidity: 56%
Barometer: 29.77 inHg , 1008.1 hPa
Clouds: Partly cloudy
Visibility: 10 miles , 16 km
Cloud details: Partly cloudy 4400 ft
2019/03/23 03:56 KMDT 230356Z 31024G31KT 10SM SCT044 02/M06 A2977 RMK AO2 PK WND 30036/0330 SLP084 T00221061
 
KTHV - York, Pennsylvania, USA
Distance from station: SSE 22mi, 36km
Updated: Fri, 22-Mar-2019 11:53pm EDT
Clear
Clear
 Wind from WNW
Wind: WNW 15 mph , 24 km/h, Gust: 32 mph , 52 km/h
Temperature: 36°F , 2°C
Wind Chill: 27°F , -3°C
Dew Point: 19°F , -7°C
Humidity: 52%
Barometer: 29.79 inHg , 1008.8 hPa
Clouds: Clear
Visibility: 10 miles , 16 km
2019/03/23 03:53 KTHV 230353Z AUTO 29013G28KT 10SM CLR 02/M07 A2979 RMK AO2 PK WND 29031/0329 SLP093 T00221067
KMUI - Muir Aaf/Indiant, Pennsylvania, USA
Distance from station: ENE 27mi, 44km
Updated: Fri, 22-Mar-2019 11:56pm EDT
Few Clouds
Few Clouds
 Wind from W
Wind: W 16 mph , 26 km/h, Gust: 29 mph , 46 km/h
Temperature: 36°F , 2°C
Wind Chill: 26°F , -3°C
Dew Point: 21°F , -6°C
Humidity: 56%
Barometer: 29.73 inHg , 1006.8 hPa
Clouds: Few Clouds
Visibility: 10 miles , 16 km
Cloud details: Few Clouds 3700 ft
2019/03/23 03:56 KMUI 230356Z AUTO 28014G25KT 10SM FEW037 02/M06 A2973 RMK AO2 PK WND 27034/44 SLP074 T00201061
 
KLNS - Lancaster, Pennsylvania, USA
Distance from station: E 38mi, 62km
Updated: Fri, 22-Mar-2019 11:53pm EDT
Clear
Clear
 Wind from WNW
Wind: WNW 22 mph , 35 km/h, Gust: 31 mph , 50 km/h
Temperature: 37°F , 3°C
Wind Chill: 26°F , -3°C
Dew Point: 25°F , -4°C
Humidity: 60%
Barometer: 29.73 inHg , 1006.8 hPa
Clouds: Clear
Visibility: 10 miles , 16 km
2019/03/23 03:53 KLNS 230353Z 30019G27KT 10SM CLR 03/M04 A2973 RMK AO2 PK WND 30029/0314 SLP069 T00281044
KRYT - Fountain Dale, Pennsylvania, USA
Distance from station: SSW 40mi, 65km
Updated: Mon, 13-Nov-2017 7:53am EST
NOT Current
Mist, Overcast
Mist, Overcast
 Wind from calm
Wind: Calm
Temperature: 37°F , 3°C
Dew Point: 34°F , 1°C
Humidity: 87%
Barometer: 30.31 inHg , 1026.4 hPa
Summary: Mist
Clouds: Overcast
Visibility: 5 miles , 8 km
Cloud details: Overcast 700 ft
2017/11/13 12:53 KRYT 131253Z AUTO 00000KT 5SM BR OVC007 03/01 A3031 RMK AO2 SLP275 T00280011 TSNO $
 
KSEG - Selinsgrove, Pennsylvania, USA
Distance from station: N 42mi, 67km
Updated: Fri, 22-Mar-2019 11:53pm EDT
Mostly cloudy
Mostly cloudy
 Wind from WNW
Wind: WNW 15 mph , 24 km/h, Gust: 21 mph , 33 km/h
Temperature: 36°F , 2°C
Wind Chill: 27°F , -3°C
Dew Point: 21°F , -6°C
Humidity: 56%
Barometer: 29.77 inHg , 1008.1 hPa
Clouds: Mostly cloudy
Visibility: 10 miles , 16 km
Cloud details: Mostly cloudy 4400 ft
2019/03/23 03:53 KSEG 230353Z AUTO 29013G18KT 10SM BKN044 02/M06 A2977 RMK AO2 SLP083 T00171061
KDMW - Carroll Cnty, Maryland, USA
Distance from station: S 43mi, 69km
Updated: Sat, 23-Mar-2019 12:20am EDT
Partly cloudy
Partly cloudy
 Wind from WNW
Wind: WNW 20 mph , 31 km/h, Gust: 35 mph , 56 km/h
Temperature: 37°F , 3°C
Wind Chill: 27°F , -3°C
Dew Point: 16°F , -9°C
Humidity: 41%
Barometer: 29.80 inHg , 1009.1 hPa
Clouds: Partly cloudy
Visibility: 10 miles , 16 km
Cloud details: Partly cloudy 4800 ft
2019/03/23 04:20 KDMW 230420Z AUTO 30017G30KT 10SM SCT048 03/M09 A2980 RMK AO2
 
KRSP - Camp David, Maryland, USA
Distance from station: SSW 46mi, 74km
Updated: Fri, 22-Mar-2019 11:54pm EDT

 Wind from NNW
Wind: NNW 16 mph , 26 km/h, Gust: 40 mph , 65 km/h
Temperature: 30°F , -1°C
Wind Chill: 19°F , -7°C
Dew Point: 19°F , -7°C
Humidity: 64%
Barometer: 29.75 inHg , 1007.5 hPa
Visibility: 10 miles , 16 km
2019/03/23 03:54 KRSP 230354Z AUTO 33014G35KT 10SM M01/M07 A2975 RMK AO2 PK WND 34035/0348 SLP093 T10111067 $